Aérodrome :
LOGIN :

S'inscrire | Disclaimer

   EN    FR    IT 

 










Légende :    VFR   VFR Marginal   IFR   IFR Intensif   IFR Très Intensif
Visi : 
Plafond : 
>= 8 km
>= 3000ft
5 à 8 km
1000 à 3000 ft
1500m à 5 km
500 à 1000 ft
800 à 1500m
200 à 500 ft
< 800m
< 200 ft
Symboles :   Orages  Brouillard  Fortes neiges  Fortes précipitations  Vent > 20 kt
SIGMETs :   Divers  Orages  Givrage  Turbulence  Onde Orograph.  Cendres Volcan.






- Altitude de l'aérodrome : 175 ft
- Code IATA : AQJ


OJAQ - King Hussein Int.

DERNIER METAR :
  • 031900Z AUTO 36008KT CAVOK 24/02 Q1015 NOSIG

METARs EXPIRÉS :
  • 031800Z AUTO 01014KT CAVOK 25/02 Q1014 NOSIG
  • 031700Z AUTO 35016KT CAVOK 27/02 Q1013 NOSIG

TAF TAF OJAQ
Valide du 03 à 18h jusqu'au 05 à 00h UTC


031651Z 0318/0424 35012KT CAVOK
BECMG 0410/0412 19010KT 7000 NSC
PROB30
TEMPO 0412/0418 5000 HZ



MET'MAP, la Météo Aéronautique d'un coup d'oeil ! - Copyright ORBIFLY Décembre 2007 - Disclaimer

ORBIFLY MET'MAP TEAM :

Programmation & Développement : Alexandra Zaïnal
Sur une idée originale de : Baudouin d'Aumeries
Assistance à la programmation : Marc-Olivier Méhu
Soutien technique & logistique : Manuel Goepfert

Contact : metmap@orbifly.com




SOURCES & CREDITS :

   NOAA